Time;durP1;ratioP1;P1;durP2;ratioP2;P2;SDS_P1;SDS_P2;PMS_P1;PMS_P2;Temp;Humidity;BMP_temperature;BMP_pressure;BME280_temperature;BME280_humidity;BME280_pressure;Samples;Min_cycle;Max_cycle;Signal;HPM_P1;HPM_P2
2023/06/11 00:00:11;;;;;;;7.13;1.90;;;18.40;99.90;;;;;;4991478;28;20054;-68
2023/06/11 00:02:41;;;;;;;4.68;2.03;;;18.40;99.90;;;;;;4998043;28;20188;-68
2023/06/11 00:05:09;;;;;;;2.20;1.50;;;18.30;99.90;;;;;;5007071;28;20411;-68
2023/06/11 00:07:37;;;;;;;2.75;1.50;;;18.30;99.90;;;;;;4989403;28;20184;-68
2023/06/11 00:10:04;;;;;;;5.13;2.10;;;18.30;99.90;;;;;;4998487;28;20104;-68
2023/06/11 00:12:32;;;;;;;2.38;1.83;;;18.20;99.90;;;;;;4992845;28;20188;-68
2023/06/11 00:15:02;;;;;;;1.45;1.33;;;18.20;99.90;;;;;;4995510;28;20192;-68
2023/06/11 00:17:28;;;;;;;3.72;1.58;;;18.10;99.90;;;;;;5007386;28;20057;-68
2023/06/11 00:19:54;;;;;;;3.85;1.60;;;18.00;99.90;;;;;;4974361;28;20164;-68
2023/06/11 00:22:20;;;;;;;3.33;2.40;;;18.00;99.90;;;;;;4963301;28;20563;-68
2023/06/11 00:24:46;;;;;;;2.15;1.65;;;18.00;99.90;;;;;;4985743;28;20058;-68
2023/06/11 00:27:12;;;;;;;3.80;2.05;;;18.00;99.90;;;;;;4991442;28;20241;-68
2023/06/11 00:29:37;;;;;;;3.60;1.80;;;17.90;99.90;;;;;;5006970;28;20112;-68
2023/06/11 00:32:03;;;;;;;5.40;1.95;;;17.90;99.90;;;;;;5003233;28;20045;-68
2023/06/11 00:34:29;;;;;;;4.93;1.80;;;17.90;99.90;;;;;;4990510;28;20053;-68
2023/06/11 00:36:55;;;;;;;1.80;1.70;;;17.90;99.90;;;;;;4993207;28;20480;-68
2023/06/11 00:39:21;;;;;;;2.17;2.03;;;17.80;99.90;;;;;;4990787;28;20037;-68
2023/06/11 00:41:48;;;;;;;10.05;2.30;;;17.80;99.90;;;;;;4954238;28;20049;-68
2023/06/11 00:44:18;;;;;;;1.85;1.75;;;17.70;99.90;;;;;;4979243;28;20050;-68
2023/06/11 00:46:47;;;;;;;3.58;1.88;;;17.70;99.90;;;;;;4988252;28;20054;-68
2023/06/11 00:49:13;;;;;;;5.25;2.50;;;17.70;99.90;;;;;;4978203;28;20050;-68
2023/06/11 00:51:43;;;;;;;3.50;1.77;;;17.70;99.90;;;;;;4989902;28;20072;-68
2023/06/11 00:54:16;;;;;;;2.15;1.90;;;17.70;99.90;;;;;;4949048;28;20190;-68
2023/06/11 00:56:46;;;;;;;2.78;2.20;;;17.60;99.90;;;;;;4990928;28;20084;-68
2023/06/11 00:59:13;;;;;;;1.98;1.88;;;17.70;99.90;;;;;;5006491;28;20056;-68
2023/06/11 01:01:51;;;;;;;2.67;1.90;;;17.70;99.90;;;;;;5001171;28;20595;-68
2023/06/11 01:04:17;;;;;;;3.10;1.90;;;17.70;99.90;;;;;;4976136;28;20042;-68
2023/06/11 01:06:49;;;;;;;3.55;2.08;;;17.70;99.90;;;;;;4973108;28;20096;-68
2023/06/11 01:09:22;;;;;;;5.20;2.08;;;17.80;99.90;;;;;;4970193;28;20053;-68
2023/06/11 01:11:54;;;;;;;5.75;2.08;;;17.80;99.90;;;;;;4978416;28;20045;-68
2023/06/11 01:14:20;;;;;;;2.60;2.00;;;17.80;99.90;;;;;;4956084;28;20481;-68
2023/06/11 01:17:04;;;;;;;3.63;2.08;;;17.80;99.90;;;;;;4988734;28;20100;-68
2023/06/11 01:19:52;;;;;;;2.80;2.22;;;17.80;99.90;;;;;;4990142;28;20057;-69
2023/06/11 01:22:33;;;;;;;4.28;2.17;;;17.80;99.90;;;;;;4990553;28;20050;-68
2023/06/11 01:24:59;;;;;;;2.30;1.73;;;17.80;99.90;;;;;;5006380;28;20085;-68
2023/06/11 01:27:58;;;;;;;4.03;2.15;;;17.70;99.90;;;;;;4990373;28;20516;-68
2023/06/11 01:30:25;;;;;;;5.25;1.80;;;17.80;99.90;;;;;;4988770;28;20042;-68
2023/06/11 01:32:58;;;;;;;4.30;2.10;;;17.70;99.90;;;;;;4988090;28;20046;-68
2023/06/11 01:35:25;;;;;;;4.00;1.98;;;17.70;99.90;;;;;;4989905;28;20052;-68
2023/06/11 01:37:57;;;;;;;2.67;2.22;;;17.70;99.90;;;;;;4991830;28;20046;-68
2023/06/11 01:40:28;;;;;;;4.45;1.90;;;17.70;99.90;;;;;;5007683;28;20046;-68
2023/06/11 01:42:55;;;;;;;5.63;2.25;;;17.70;99.90;;;;;;4988422;28;20101;-68
2023/06/11 01:45:22;;;;;;;3.42;2.25;;;17.60;99.90;;;;;;4983821;28;20073;-68
2023/06/11 01:47:49;;;;;;;2.20;2.00;;;17.60;99.90;;;;;;4971913;28;20139;-68
2023/06/11 01:50:17;;;;;;;2.58;1.80;;;17.60;99.90;;;;;;4987955;28;20049;-68
2023/06/11 01:52:43;;;;;;;2.45;2.25;;;17.60;99.90;;;;;;5007991;28;20184;-68
2023/06/11 01:55:09;;;;;;;2.88;2.20;;;17.60;99.90;;;;;;4991798;28;20511;-68
2023/06/11 01:57:36;;;;;;;5.13;2.25;;;17.60;99.90;;;;;;4990994;28;20443;-68
2023/06/11 02:00:10;;;;;;;3.35;2.00;;;17.60;99.90;;;;;;4982256;28;20093;-68
2023/06/11 02:02:40;;;;;;;3.83;2.55;;;17.60;99.90;;;;;;4987951;28;20096;-68
2023/06/11 02:05:07;;;;;;;4.55;1.90;;;17.60;99.90;;;;;;4992842;28;20452;-68
2023/06/11 02:07:33;;;;;;;2.38;1.83;;;17.50;99.90;;;;;;4993288;28;20088;-68
2023/06/11 02:09:59;;;;;;;2.20;2.00;;;17.50;99.90;;;;;;4996272;28;20074;-67
2023/06/11 02:12:25;;;;;;;2.47;2.15;;;17.40;99.90;;;;;;5003648;28;20046;-68
2023/06/11 02:14:51;;;;;;;3.45;2.00;;;17.50;99.90;;;;;;4993427;28;20054;-68
2023/06/11 02:17:16;;;;;;;5.07;2.13;;;17.50;99.90;;;;;;4991572;28;20077;-68
2023/06/11 02:19:42;;;;;;;3.17;1.90;;;17.50;99.90;;;;;;5004377;28;20058;-68
2023/06/11 02:22:08;;;;;;;2.58;1.90;;;17.40;99.90;;;;;;4991771;28;20101;-68
2023/06/11 02:24:34;;;;;;;3.95;2.13;;;17.40;99.90;;;;;;4993604;28;20115;-68
2023/06/11 02:26:59;;;;;;;2.85;1.92;;;17.30;99.90;;;;;;4960002;28;20449;-68
2023/06/11 02:29:25;;;;;;;4.68;2.30;;;17.30;99.90;;;;;;5008275;28;20056;-68
2023/06/11 02:31:51;;;;;;;4.18;2.42;;;17.30;99.90;;;;;;4991667;28;20049;-68
2023/06/11 02:34:17;;;;;;;5.38;2.60;;;17.30;99.90;;;;;;4975965;28;20076;-68
2023/06/11 02:36:43;;;;;;;2.78;2.45;;;17.30;99.90;;;;;;4992970;28;20034;-68
2023/06/11 02:39:09;;;;;;;3.75;2.10;;;17.30;99.90;;;;;;4980534;28;20058;-68
2023/06/11 02:41:34;;;;;;;4.45;2.25;;;17.30;99.90;;;;;;4982010;28;20038;-68
2023/06/11 02:44:00;;;;;;;3.85;1.85;;;17.20;99.90;;;;;;5009093;28;20081;-68
2023/06/11 02:46:26;;;;;;;3.78;2.33;;;17.20;99.90;;;;;;4987310;28;20108;-67
2023/06/11 02:48:52;;;;;;;2.47;2.13;;;17.20;99.90;;;;;;5010502;28;20042;-67
2023/06/11 02:51:18;;;;;;;5.40;2.75;;;17.10;99.90;;;;;;4980695;28;20050;-69
2023/06/11 02:53:44;;;;;;;5.07;2.20;;;17.10;99.90;;;;;;5008577;28;20056;-68
2023/06/11 02:56:10;;;;;;;3.38;2.15;;;17.10;99.90;;;;;;5007294;28;20512;-68
2023/06/11 02:58:36;;;;;;;2.30;2.10;;;17.10;99.90;;;;;;4976540;28;20041;-68
2023/06/11 03:01:03;;;;;;;2.90;2.28;;;17.10;99.90;;;;;;4982569;28;20094;-68
2023/06/11 03:03:28;;;;;;;2.20;1.98;;;17.00;99.90;;;;;;5010167;28;20080;-68
2023/06/11 03:05:54;;;;;;;2.60;2.15;;;17.00;99.90;;;;;;4991416;28;20078;-68
2023/06/11 03:08:20;;;;;;;2.38;2.17;;;17.00;99.90;;;;;;4991723;28;20050;-68
2023/06/11 03:10:46;;;;;;;6.93;2.40;;;17.00;99.90;;;;;;4978370;28;20489;-69
2023/06/11 03:13:12;;;;;;;3.78;2.50;;;17.00;99.90;;;;;;4983112;28;20044;-68
2023/06/11 03:15:37;;;;;;;3.65;2.17;;;17.00;99.90;;;;;;4983548;28;20393;-68
2023/06/11 03:18:03;;;;;;;2.88;2.10;;;17.00;99.90;;;;;;4989865;28;20038;-69
2023/06/11 03:20:30;;;;;;;3.30;2.30;;;17.00;99.90;;;;;;5009808;28;20061;-68
2023/06/11 03:22:56;;;;;;;3.55;2.45;;;17.00;99.90;;;;;;4969800;28;20026;-68
2023/06/11 03:25:21;;;;;;;2.58;2.08;;;17.00;99.90;;;;;;5009527;28;20171;-68
2023/06/11 03:27:47;;;;;;;3.10;2.38;;;16.90;99.90;;;;;;5009420;28;20104;-67
2023/06/11 03:30:13;;;;;;;3.38;1.90;;;16.90;99.90;;;;;;5008515;28;20042;-68
2023/06/11 03:32:40;;;;;;;2.47;2.22;;;16.90;99.90;;;;;;4974183;28;20395;-67
2023/06/11 03:35:06;;;;;;;3.33;2.30;;;17.00;99.90;;;;;;4993701;28;20040;-68
2023/06/11 03:37:32;;;;;;;4.38;2.30;;;17.00;99.90;;;;;;4981413;28;20459;-68
2023/06/11 03:39:58;;;;;;;5.70;2.15;;;17.00;99.90;;;;;;4974461;28;20038;-68
2023/06/11 03:42:24;;;;;;;2.92;2.00;;;17.00;99.90;;;;;;4987734;28;20053;-68
2023/06/11 03:44:50;;;;;;;2.90;2.30;;;17.00;99.90;;;;;;4971284;28;20054;-68
2023/06/11 03:47:16;;;;;;;4.15;2.58;;;17.00;99.90;;;;;;4990548;28;20172;-68
2023/06/11 03:49:43;;;;;;;4.20;2.42;;;17.00;99.90;;;;;;4991875;28;20069;-67
2023/06/11 03:52:09;;;;;;;2.58;2.25;;;17.00;99.90;;;;;;4989783;28;20117;-68
2023/06/11 03:54:35;;;;;;;2.10;1.98;;;17.00;99.90;;;;;;4990145;28;20173;-68
2023/06/11 03:57:00;;;;;;;5.30;2.10;;;17.10;99.90;;;;;;4987857;28;20046;-69
2023/06/11 03:59:26;;;;;;;3.38;2.30;;;17.10;99.90;;;;;;4991668;28;20053;-68
2023/06/11 04:01:52;;;;;;;3.05;2.60;;;17.10;99.90;;;;;;4984581;28;20038;-68
2023/06/11 04:04:18;;;;;;;2.50;2.10;;;17.20;99.90;;;;;;4995240;28;20508;-68
2023/06/11 04:06:44;;;;;;;2.28;2.17;;;17.10;99.90;;;;;;4985402;28;20079;-68
2023/06/11 04:09:10;;;;;;;4.95;2.50;;;17.20;99.90;;;;;;4974239;28;20128;-68
2023/06/11 04:11:35;;;;;;;4.78;2.15;;;17.20;99.90;;;;;;4997856;28;20199;-68
2023/06/11 04:14:01;;;;;;;3.83;2.30;;;17.20;99.90;;;;;;4982649;28;20069;-68
2023/06/11 04:16:27;;;;;;;4.85;2.40;;;17.20;99.90;;;;;;4995202;28;20046;-67
2023/06/11 04:18:53;;;;;;;2.88;2.25;;;17.20;99.90;;;;;;4989538;28;20054;-68
2023/06/11 04:21:19;;;;;;;2.92;2.35;;;17.20;99.90;;;;;;5008608;28;20089;-68
2023/06/11 04:23:44;;;;;;;3.85;2.35;;;17.30;99.90;;;;;;4990953;28;20135;-67
2023/06/11 04:26:10;;;;;;;5.72;2.22;;;17.30;99.90;;;;;;4971624;28;20113;-68
2023/06/11 04:28:37;;;;;;;2.22;1.80;;;17.30;99.90;;;;;;4991023;28;20052;-68
2023/06/11 04:31:04;;;;;;;3.22;2.30;;;17.30;99.90;;;;;;4988039;28;20350;-67
2023/06/11 04:33:33;;;;;;;4.75;2.13;;;17.30;99.90;;;;;;4968364;28;20054;-68
2023/06/11 04:36:07;;;;;;;2.40;2.20;;;17.40;99.90;;;;;;4982164;28;20060;-68
2023/06/11 04:38:34;;;;;;;5.25;2.28;;;17.40;99.90;;;;;;4977672;28;20046;-69
2023/06/11 04:41:00;;;;;;;5.07;2.38;;;17.40;99.90;;;;;;4990243;28;20080;-68
2023/06/11 04:43:27;;;;;;;2.80;2.22;;;17.40;99.90;;;;;;5002917;28;20871;-68
2023/06/11 04:45:56;;;;;;;4.38;2.47;;;17.40;99.90;;;;;;4965082;28;20038;-67
2023/06/11 04:48:28;;;;;;;3.55;2.20;;;17.50;99.90;;;;;;5000380;28;20045;-68
2023/06/11 04:50:54;;;;;;;2.22;2.03;;;17.50;99.90;;;;;;5007044;28;20056;-67
2023/06/11 04:53:27;;;;;;;2.55;2.20;;;17.60;99.90;;;;;;4988510;28;20046;-68
2023/06/11 04:55:55;;;;;;;2.67;2.47;;;17.60;99.90;;;;;;4983586;28;20389;-68
2023/06/11 04:58:21;;;;;;;5.05;2.50;;;17.60;99.90;;;;;;4968769;28;20046;-67
2023/06/11 05:00:48;;;;;;;4.15;2.58;;;17.70;99.90;;;;;;4989860;28;20471;-69
2023/06/11 05:03:17;;;;;;;3.65;2.58;;;17.70;99.90;;;;;;4970601;28;20096;-68
2023/06/11 05:05:51;;;;;;;1.92;1.75;;;17.80;99.90;;;;;;4962023;28;20050;-68
2023/06/11 05:08:25;;;;;;;6.65;2.05;;;17.80;99.90;;;;;;4990109;28;20539;-68
2023/06/11 05:10:57;;;;;;;3.63;2.15;;;18.00;99.90;;;;;;4972943;28;20077;-68
2023/06/11 05:13:27;;;;;;;3.47;2.50;;;18.10;99.90;;;;;;4981913;28;20520;-68
2023/06/11 05:15:57;;;;;;;2.08;1.90;;;18.10;99.90;;;;;;4989889;28;20052;-67
2023/06/11 05:18:25;;;;;;;4.55;2.20;;;18.10;99.90;;;;;;5006117;28;20083;-68
2023/06/11 05:20:51;;;;;;;4.85;2.42;;;18.10;99.90;;;;;;5007767;28;20065;-68
2023/06/11 05:23:18;;;;;;;4.32;2.45;;;18.10;99.90;;;;;;4995515;28;20061;-68
2023/06/11 05:25:47;;;;;;;4.38;1.95;;;18.10;99.90;;;;;;4954703;28;20058;-68
2023/06/11 05:28:14;;;;;;;3.70;2.20;;;18.20;99.90;;;;;;4987409;28;20091;-67
2023/06/11 05:30:45;;;;;;;2.42;2.22;;;18.20;99.90;;;;;;4989961;28;20076;-68
2023/06/11 05:33:16;;;;;;;3.15;2.20;;;18.20;99.90;;;;;;4999662;28;20043;-67
2023/06/11 05:35:44;;;;;;;2.38;1.90;;;18.20;99.90;;;;;;4971133;28;20061;-68
2023/06/11 05:38:11;;;;;;;2.08;1.73;;;18.20;99.90;;;;;;5004632;28;20034;-68
2023/06/11 05:40:37;;;;;;;3.60;2.50;;;18.30;99.90;;;;;;4977903;28;20057;-68
2023/06/11 05:43:04;;;;;;;3.60;2.50;;;18.40;99.90;;;;;;5007933;28;20042;-68
2023/06/11 05:45:33;;;;;;;4.78;2.17;;;18.40;99.90;;;;;;4965062;28;20514;-68
2023/06/11 05:48:00;;;;;;;2.25;2.08;;;18.50;99.90;;;;;;4989923;28;20117;-68
2023/06/11 05:50:26;;;;;;;3.00;2.33;;;18.50;97.10;;;;;;4948940;28;20080;-68
2023/06/11 05:52:52;;;;;;;3.83;2.30;;;18.50;96.60;;;;;;4990510;28;20046;-68
2023/06/11 05:55:18;;;;;;;3.97;2.17;;;18.60;98.90;;;;;;5007067;28;20042;-68
2023/06/11 05:57:44;;;;;;;2.97;2.40;;;18.60;93.50;;;;;;4981657;28;20049;-67
2023/06/11 06:00:12;;;;;;;3.25;2.03;;;18.70;92.40;;;;;;4978082;28;20500;-68
2023/06/11 06:02:39;;;;;;;1.83;1.73;;;18.80;90.80;;;;;;4981866;28;20050;-68
2023/06/11 06:05:06;;;;;;;3.95;1.80;;;18.80;93.30;;;;;;5007755;28;20057;-67
2023/06/11 06:07:31;;;;;;;1.85;1.73;;;18.80;91.00;;;;;;4985352;28;20098;-68
2023/06/11 06:09:57;;;;;;;6.72;2.00;;;18.90;87.30;;;;;;4965799;28;20065;-68
2023/06/11 06:12:23;;;;;;;3.00;1.90;;;18.90;89.20;;;;;;4989525;28;20054;-68
2023/06/11 06:14:49;;;;;;;5.22;2.15;;;18.90;90.50;;;;;;5005887;28;20050;-67
2023/06/11 06:17:14;;;;;;;5.13;2.00;;;19.00;89.10;;;;;;4990145;28;20092;-68
2023/06/11 06:19:40;;;;;;;2.10;1.90;;;19.00;87.60;;;;;;4992138;28;20435;-68
2023/06/11 06:22:07;;;;;;;3.78;2.15;;;19.10;91.60;;;;;;5007582;28;20085;-68
2023/06/11 06:24:33;;;;;;;2.88;1.92;;;19.20;84.80;;;;;;4988317;28;20045;-68
2023/06/11 06:26:58;;;;;;;3.20;2.90;;;19.20;84.20;;;;;;4989729;28;20049;-68
2023/06/11 06:29:25;;;;;;;2.65;1.67;;;19.30;82.00;;;;;;4997266;28;20484;-68
2023/06/11 06:31:52;;;;;;;2.50;2.30;;;19.40;82.50;;;;;;4951640;28;20082;-68
2023/06/11 06:34:18;;;;;;;3.78;2.00;;;19.50;79.80;;;;;;4976558;28;20077;-68
2023/06/11 06:36:43;;;;;;;2.22;1.90;;;19.60;76.30;;;;;;4986471;28;20046;-68
2023/06/11 06:39:09;;;;;;;3.35;2.15;;;19.60;71.70;;;;;;4986952;28;20181;-68
2023/06/11 06:41:35;;;;;;;2.55;2.00;;;19.60;71.90;;;;;;4968807;28;20051;-68
2023/06/11 06:44:01;;;;;;;3.33;1.90;;;19.70;72.10;;;;;;5000060;28;20133;-69
2023/06/11 06:46:27;;;;;;;2.75;2.45;;;19.80;69.10;;;;;;4992240;28;20042;-68
2023/06/11 06:48:53;;;;;;;2.80;2.08;;;19.80;68.70;;;;;;5009911;28;20061;-68
2023/06/11 06:51:20;;;;;;;2.60;2.40;;;19.80;64.40;;;;;;4975904;28;20413;-68
2023/06/11 06:53:50;;;;;;;2.85;2.15;;;19.90;60.00;;;;;;5007837;28;20042;-68
2023/06/11 06:56:17;;;;;;;3.80;1.80;;;19.90;53.40;;;;;;4993148;28;20136;-69
2023/06/11 06:58:43;;;;;;;3.67;2.30;;;20.00;53.80;;;;;;4990637;28;20042;-68
2023/06/11 07:01:09;;;;;;;2.05;1.90;;;20.10;52.20;;;;;;5002294;28;20042;-68
2023/06/11 07:03:35;;;;;;;2.38;1.90;;;20.20;61.80;;;;;;4987016;28;20077;-68
2023/06/11 07:06:01;;;;;;;5.45;2.15;;;20.20;48.60;;;;;;4980950;28;20507;-68
2023/06/11 07:08:28;;;;;;;5.20;2.35;;;20.30;58.20;;;;;;4976054;28;20049;-68
2023/06/11 07:10:55;;;;;;;7.60;2.03;;;20.50;56.60;;;;;;4969825;28;20085;-68
2023/06/11 07:13:22;;;;;;;2.38;1.95;;;20.60;57.20;;;;;;4981965;28;20120;-68
2023/06/11 07:15:49;;;;;;;2.50;2.30;;;20.70;33.80;;;;;;4958318;28;20046;-68
2023/06/11 07:18:15;;;;;;;3.63;1.95;;;20.80;34.60;;;;;;4980374;28;20592;-68
2023/06/11 07:20:41;;;;;;;4.55;2.03;;;20.90;31.80;;;;;;4990509;28;20132;-67
2023/06/11 07:23:07;;;;;;;3.92;2.35;;;21.10;32.30;;;;;;5009734;28;20093;-68
2023/06/11 07:25:33;;;;;;;2.58;2.08;;;21.20;27.80;;;;;;4984469;28;20097;-68
2023/06/11 07:28:01;;;;;;;3.53;2.20;;;21.40;40.40;;;;;;4974111;28;20528;-68
2023/06/11 07:30:27;;;;;;;2.03;1.90;;;21.50;33.10;;;;;;4971221;28;20046;-68
2023/06/11 07:32:56;;;;;;;4.47;1.83;;;21.70;23.90;;;;;;4971713;28;20046;-67
2023/06/11 07:35:25;;;;;;;4.63;2.17;;;21.90;29.40;;;;;;4986348;28;20038;-68
2023/06/11 07:37:51;;;;;;;3.72;1.77;;;22.10;39.30;;;;;;4976128;28;20039;-68
2023/06/11 07:40:18;;;;;;;5.47;2.10;;;22.30;23.00;;;;;;4972235;28;20046;-67
2023/06/11 07:42:46;;;;;;;2.85;2.47;;;22.60;22.10;;;;;;4997718;28;20049;-68
2023/06/11 07:45:12;;;;;;;4.93;2.85;;;22.80;10.20;;;;;;4986916;28;20038;-68
2023/06/11 07:47:39;;;;;;;3.40;2.40;;;23.10;8.90;;;;;;4972237;28;20050;-67
2023/06/11 07:50:05;;;;;;;2.20;2.00;;;23.30;13.00;;;;;;4987030;28;20392;-68
2023/06/11 07:52:32;;;;;;;2.38;2.17;;;23.40;9.50;;;;;;4986881;28;20054;-68
2023/06/11 07:54:58;;;;;;;2.35;2.05;;;23.60;12.10;;;;;;4967739;28;20460;-67
2023/06/11 07:57:24;;;;;;;2.20;2.10;;;23.90;17.50;;;;;;4972378;28;20050;-69
2023/06/11 07:59:51;;;;;;;3.10;2.10;;;24.00;6.50;;;;;;4988571;28;20034;-67
2023/06/11 08:02:16;;;;;;;2.30;2.10;;;24.10;1.00;;;;;;4988262;28;20042;-68
2023/06/11 08:04:42;;;;;;;1.90;1.80;;;24.20;4.20;;;;;;4989350;28;20058;-68
2023/06/11 08:07:09;;;;;;;3.13;2.35;;;24.30;2.60;;;;;;4969846;28;20047;-67
2023/06/11 08:09:36;;;;;;;2.25;2.00;;;24.40;1.00;;;;;;4971825;28;20396;-68
2023/06/11 08:12:06;;;;;;;2.30;2.10;;;24.60;1.00;;;;;;4981564;28;20050;-68
2023/06/11 08:14:35;;;;;;;2.95;2.28;;;24.80;1.00;;;;;;4990692;28;20551;-68
2023/06/11 08:17:02;;;;;;;2.25;1.77;;;25.00;1.00;;;;;;4970848;28;20102;-68
2023/06/11 08:19:27;;;;;;;4.35;1.90;;;25.10;1.00;;;;;;4970359;28;20050;-68
2023/06/11 08:21:59;;;;;;;4.85;2.30;;;25.30;1.00;;;;;;4967972;28;20512;-67
2023/06/11 08:24:25;;;;;;;3.05;2.40;;;25.60;1.00;;;;;;4966718;28;20072;-67
2023/06/11 08:26:51;;;;;;;3.80;2.20;;;25.70;1.00;;;;;;4989205;28;20397;-68
2023/06/11 08:29:17;;;;;;;4.00;2.28;;;25.70;1.00;;;;;;4969862;28;20116;-67
2023/06/11 08:31:43;;;;;;;3.28;2.00;;;25.90;1.00;;;;;;4961544;28;22170;-68
2023/06/11 08:34:09;;;;;;;3.17;2.15;;;25.90;1.00;;;;;;4970599;28;20172;-68
2023/06/11 08:36:38;;;;;;;2.28;2.08;;;26.00;1.00;;;;;;4971010;28;20085;-68
2023/06/11 08:39:03;;;;;;;3.95;2.28;;;26.00;1.00;;;;;;4988864;28;20089;-68
2023/06/11 08:41:29;;;;;;;3.50;2.22;;;26.00;1.00;;;;;;4970072;28;20054;-68
2023/06/11 08:43:59;;;;;;;2.20;1.92;;;26.10;1.00;;;;;;4971068;28;20062;-68
2023/06/11 08:46:25;;;;;;;7.43;2.25;;;26.20;1.00;;;;;;4969528;28;20058;-68
2023/06/11 08:48:58;;;;;;;3.42;2.03;;;26.00;1.00;;;;;;4971578;28;20047;-68
2023/06/11 08:51:27;;;;;;;3.20;2.00;;;26.00;1.00;;;;;;4970004;28;20046;-67
2023/06/11 08:53:53;;;;;;;2.20;1.80;;;26.20;1.00;;;;;;4970419;28;20458;-68
2023/06/11 08:56:20;;;;;;;2.65;2.40;;;26.20;1.00;;;;;;4988625;28;20536;-67
2023/06/11 08:58:47;;;;;;;5.28;2.00;;;26.30;1.00;;;;;;4986225;28;20042;-68
2023/06/11 09:01:13;;;;;;;2.65;2.45;;;26.50;1.00;;;;;;4970629;28;20061;-68
2023/06/11 09:03:40;;;;;;;3.78;1.83;;;26.50;1.00;;;;;;4953065;28;20449;-69
2023/06/11 09:06:06;;;;;;;2.70;1.83;;;26.60;1.00;;;;;;4971583;28;20405;-68
2023/06/11 09:08:32;;;;;;;4.35;1.80;;;26.80;1.00;;;;;;4991659;28;20048;-69
2023/06/11 09:10:58;;;;;;;2.30;2.10;;;26.80;1.00;;;;;;4985764;28;20046;-68
2023/06/11 09:13:26;;;;;;;5.65;2.10;;;26.90;1.00;;;;;;4989990;28;20060;-67
2023/06/11 09:15:54;;;;;;;3.20;1.58;;;27.00;1.00;;;;;;4988980;28;20045;-67
2023/06/11 09:18:25;;;;;;;3.22;2.28;;;27.20;1.00;;;;;;4990684;28;20073;-69
2023/06/11 09:20:56;;;;;;;2.40;2.17;;;27.50;1.00;;;;;;4987588;28;20059;-68
2023/06/11 09:23:31;;;;;;;2.42;2.10;;;27.50;1.00;;;;;;4977198;28;20099;-67
2023/06/11 09:26:01;;;;;;;2.35;2.00;;;27.40;1.00;;;;;;4988478;28;20059;-68
2023/06/11 09:28:29;;;;;;;2.30;2.00;;;27.30;1.00;;;;;;5007898;28;20439;-69
2023/06/11 09:30:55;;;;;;;2.45;2.25;;;27.30;1.00;;;;;;4989728;28;20038;-68
2023/06/11 09:33:22;;;;;;;2.25;2.05;;;27.20;1.00;;;;;;5006313;28;20455;-69
2023/06/11 09:35:48;;;;;;;3.25;2.03;;;27.30;1.00;;;;;;4999144;28;20050;-68
2023/06/11 09:38:15;;;;;;;3.85;2.20;;;27.30;1.00;;;;;;4992603;28;20464;-68
2023/06/11 09:40:52;;;;;;;1.90;1.80;;;27.30;1.00;;;;;;5006212;28;20054;-68
2023/06/11 09:43:22;;;;;;;3.22;1.90;;;27.50;1.00;;;;;;4988644;28;20072;-68
2023/06/11 09:45:55;;;;;;;2.72;1.90;;;27.50;1.00;;;;;;4993585;28;20467;-69
2023/06/11 09:48:22;;;;;;;3.45;2.33;;;27.50;1.00;;;;;;4986822;28;20084;-67
2023/06/11 09:50:52;;;;;;;2.22;1.95;;;27.50;1.00;;;;;;4988311;28;20050;-68
2023/06/11 09:53:20;;;;;;;3.67;2.40;;;27.60;1.00;;;;;;4990513;28;20038;-68
2023/06/11 09:55:50;;;;;;;2.00;1.90;;;27.60;1.00;;;;;;4978634;28;20050;-68
2023/06/11 09:58:22;;;;;;;2.50;2.03;;;27.60;1.00;;;;;;4962187;28;20042;-68
2023/06/11 10:00:58;;;;;;;3.22;2.58;;;27.70;1.00;;;;;;4989291;28;20452;-68
2023/06/11 10:03:25;;;;;;;2.33;2.13;;;27.70;1.00;;;;;;5001281;28;20104;-68
2023/06/11 10:05:51;;;;;;;2.58;2.38;;;27.70;1.00;;;;;;4979627;28;20047;-67
2023/06/11 10:08:22;;;;;;;2.63;1.88;;;27.70;1.00;;;;;;4975253;28;20134;-68
2023/06/11 10:10:53;;;;;;;2.78;2.08;;;27.90;1.00;;;;;;4973611;28;20046;-68
2023/06/11 10:13:34;;;;;;;2.70;1.90;;;27.90;1.00;;;;;;4988875;28;20046;-69
2023/06/11 10:16:02;;;;;;;2.03;1.92;;;27.90;1.00;;;;;;4988270;28;20054;-68
2023/06/11 10:18:30;;;;;;;3.00;2.05;;;28.00;1.00;;;;;;4982681;28;20054;-68
2023/06/11 10:21:00;;;;;;;2.30;2.10;;;28.00;1.00;;;;;;5007992;28;20112;-68
2023/06/11 10:23:42;;;;;;;2.63;2.15;;;28.10;1.00;;;;;;4999429;28;20289;-68
2023/06/11 10:26:11;;;;;;;2.47;2.28;;;28.10;1.00;;;;;;4990242;28;20053;-68
2023/06/11 10:28:42;;;;;;;2.15;2.00;;;28.10;1.00;;;;;;4971382;28;20049;-68
2023/06/11 10:31:07;;;;;;;2.38;2.13;;;28.20;1.00;;;;;;5009133;28;20175;-68
2023/06/11 10:33:40;;;;;;;1.85;1.73;;;28.20;1.00;;;;;;4974273;28;20066;-69
2023/06/11 10:36:06;;;;;;;2.85;2.00;;;28.20;1.00;;;;;;4990857;28;20416;-68
2023/06/11 10:38:37;;;;;;;3.03;2.20;;;28.30;1.00;;;;;;4971131;28;20070;-68
2023/06/11 10:41:03;;;;;;;2.00;1.90;;;28.40;1.00;;;;;;4973753;28;20069;-68
2023/06/11 10:43:32;;;;;;;2.42;2.10;;;28.40;1.00;;;;;;4988688;28;20089;-69
2023/06/11 10:46:12;;;;;;;2.03;1.90;;;28.50;1.00;;;;;;4990707;28;20097;-68
2023/06/11 10:48:49;;;;;;;3.50;2.10;;;28.50;1.00;;;;;;4973454;28;20050;-68
2023/06/11 10:51:16;;;;;;;4.50;2.22;;;28.50;1.00;;;;;;4988319;28;20074;-68
2023/06/11 10:53:41;;;;;;;2.50;2.30;;;28.50;1.00;;;;;;4957580;28;20078;-68
2023/06/11 10:56:12;;;;;;;2.60;2.00;;;28.50;1.00;;;;;;4971357;28;21018;-68
2023/06/11 10:58:40;;;;;;;2.55;2.35;;;28.50;1.00;;;;;;4990989;28;20050;-68
2023/06/11 11:01:07;;;;;;;2.30;2.20;;;28.50;1.00;;;;;;4971480;28;20058;-68
2023/06/11 11:03:34;;;;;;;1.95;1.85;;;28.60;1.00;;;;;;5004279;28;20041;-67
2023/06/11 11:06:00;;;;;;;5.40;2.72;;;28.70;1.00;;;;;;4990936;28;20053;-68
2023/06/11 11:08:26;;;;;;;2.38;1.98;;;28.70;1.00;;;;;;4989228;28;20101;-68
2023/06/11 11:10:59;;;;;;;4.30;2.50;;;28.80;1.00;;;;;;4974326;28;20034;-68
2023/06/11 11:13:25;;;;;;;2.47;2.28;;;28.70;1.00;;;;;;4949968;28;20191;-68
2023/06/11 11:15:51;;;;;;;4.15;1.95;;;28.70;1.00;;;;;;4993158;28;20042;-67
2023/06/11 11:18:17;;;;;;;1.80;1.70;;;28.60;1.00;;;;;;4987843;28;20051;-68
2023/06/11 11:20:47;;;;;;;1.92;1.83;;;28.60;1.00;;;;;;4971831;28;20057;-68
2023/06/11 11:23:12;;;;;;;2.13;1.90;;;28.70;1.00;;;;;;4973526;28;20170;-68
2023/06/11 11:25:40;;;;;;;4.80;2.20;;;28.70;1.00;;;;;;4971696;28;20401;-68
2023/06/11 11:28:06;;;;;;;3.72;2.00;;;28.80;1.00;;;;;;4972301;28;20097;-68
2023/06/11 11:30:32;;;;;;;4.60;2.13;;;28.70;1.00;;;;;;4955729;28;20044;-68
2023/06/11 11:32:59;;;;;;;2.20;2.00;;;28.50;1.00;;;;;;4974262;28;20069;-68
2023/06/11 11:35:30;;;;;;;2.15;1.90;;;28.60;1.00;;;;;;4989311;28;20461;-68
2023/06/11 11:37:56;;;;;;;2.92;2.50;;;28.60;1.00;;;;;;4983105;28;20080;-68
2023/06/11 11:40:22;;;;;;;2.45;2.10;;;28.70;1.00;;;;;;5004672;28;20072;-68
2023/06/11 11:42:50;;;;;;;3.63;1.83;;;28.60;1.00;;;;;;5004622;28;20056;-68
2023/06/11 11:45:18;;;;;;;4.53;2.38;;;28.60;1.00;;;;;;4984247;28;20046;-67
2023/06/11 11:47:52;;;;;;;2.17;1.92;;;28.60;1.00;;;;;;4984034;28;20046;-68
2023/06/11 11:50:25;;;;;;;2.50;2.00;;;28.60;1.00;;;;;;5001074;28;20045;-68
2023/06/11 11:53:05;;;;;;;2.20;1.98;;;28.70;1.00;;;;;;4979701;28;20054;-68
2023/06/11 11:55:36;;;;;;;2.10;1.80;;;28.70;1.00;;;;;;4971576;28;20077;-68
2023/06/11 11:58:07;;;;;;;4.20;2.13;;;28.60;1.00;;;;;;4972274;28;20046;-68
2023/06/11 12:00:35;;;;;;;3.35;1.77;;;28.60;1.00;;;;;;4983562;28;20424;-69
2023/06/11 12:03:09;;;;;;;2.33;2.00;;;28.60;1.00;;;;;;4971572;28;20147;-69
2023/06/11 12:05:36;;;;;;;2.20;2.00;;;28.60;1.00;;;;;;4988309;28;20050;-68
2023/06/11 12:08:03;;;;;;;2.17;1.90;;;28.60;1.00;;;;;;4971724;28;20056;-68
2023/06/11 12:10:29;;;;;;;2.33;1.70;;;28.60;1.00;;;;;;4972136;28;20384;-68
2023/06/11 12:12:55;;;;;;;2.22;2.10;;;28.60;1.00;;;;;;5003466;28;20038;-68
2023/06/11 12:15:20;;;;;;;2.42;1.90;;;28.60;1.00;;;;;;4990725;28;20053;-68
2023/06/11 12:17:46;;;;;;;2.10;1.77;;;28.70;1.00;;;;;;4985510;28;20046;-69
2023/06/11 12:20:12;;;;;;;3.70;2.10;;;28.70;1.00;;;;;;4971224;28;20094;-68
2023/06/11 12:22:38;;;;;;;4.65;2.35;;;28.70;1.00;;;;;;4987851;28;20141;-68
2023/06/11 12:25:05;;;;;;;2.53;2.22;;;28.70;1.00;;;;;;4989566;28;20384;-68
2023/06/11 12:27:31;;;;;;;1.98;1.88;;;28.70;1.00;;;;;;4972637;28;20470;-68
2023/06/11 12:29:57;;;;;;;2.00;1.85;;;28.80;1.00;;;;;;4987287;28;20065;-68
2023/06/11 12:32:25;;;;;;;2.05;1.92;;;28.90;1.00;;;;;;4994417;28;20042;-68
2023/06/11 12:34:51;;;;;;;2.38;2.17;;;28.70;1.00;;;;;;4987912;28;20077;-68
2023/06/11 12:37:17;;;;;;;2.17;2.00;;;28.70;1.00;;;;;;4981504;28;20049;-69
2023/06/11 12:39:43;;;;;;;2.28;2.05;;;28.60;1.00;;;;;;4987751;28;20101;-68
2023/06/11 12:42:22;;;;;;;1.95;1.70;;;28.50;1.00;;;;;;4988894;28;20035;-68
2023/06/11 12:44:50;;;;;;;2.60;2.20;;;28.50;1.00;;;;;;4988594;28;20052;-69
2023/06/11 12:47:16;;;;;;;2.40;2.20;;;28.50;1.00;;;;;;4974954;28;20458;-69
2023/06/11 12:49:42;;;;;;;2.13;2.03;;;28.60;1.00;;;;;;4987545;28;20485;-67
2023/06/11 12:52:11;;;;;;;2.15;1.95;;;28.70;1.00;;;;;;4987522;28;20046;-68